Time;durP1;ratioP1;P1;durP2;ratioP2;P2;SDS_P1;SDS_P2;PMS_P1;PMS_P2;Temp;Humidity;BMP_temperature;BMP_pressure;BME280_temperature;BME280_humidity;BME280_pressure;Samples;Min_cycle;Max_cycle;Signal;HPM_P1;HPM_P2
2021/01/22 00:01:41;;;;;;;8.57;6.83;;;5.20;99.90;;;;;;5035141;28;20192;-46
2021/01/22 00:04:07;;;;;;;10.17;7.30;;;5.20;99.90;;;;;;5034997;28;20179;-54
2021/01/22 00:06:32;;;;;;;9.63;6.87;;;5.30;99.90;;;;;;5034819;28;20208;-55
2021/01/22 00:08:58;;;;;;;14.13;11.93;;;5.30;99.90;;;;;;5035015;28;20196;-45
2021/01/22 00:11:23;;;;;;;13.73;11.47;;;5.30;99.90;;;;;;5034712;28;20282;-52
2021/01/22 00:13:49;;;;;;;13.40;11.30;;;5.20;99.90;;;;;;5035313;28;20171;-47
2021/01/22 00:16:14;;;;;;;12.93;10.83;;;5.00;99.90;;;;;;5034566;28;20202;-46
2021/01/22 00:18:40;;;;;;;13.20;11.13;;;4.90;99.90;;;;;;5034361;28;20203;-46
2021/01/22 00:21:05;;;;;;;12.00;9.83;;;4.90;99.90;;;;;;5034357;28;20172;-46
2021/01/22 00:23:31;;;;;;;22.47;15.27;;;4.90;99.90;;;;;;5034662;28;20186;-53
2021/01/22 00:25:57;;;;;;;35.03;21.90;;;4.90;99.90;;;;;;5034309;28;20172;-58
2021/01/22 00:28:23;;;;;;;16.10;10.87;;;4.80;99.90;;;;;;5034872;28;20513;-51
2021/01/22 00:30:49;;;;;;;9.53;7.10;;;4.90;99.90;;;;;;5034510;28;20182;-47
2021/01/22 00:33:14;;;;;;;11.33;7.57;;;4.90;99.90;;;;;;5031689;28;20228;-47
2021/01/22 00:35:40;;;;;;;9.70;6.87;;;4.80;99.90;;;;;;5034077;28;20190;-51
2021/01/22 00:38:05;;;;;;;10.23;6.87;;;4.80;99.90;;;;;;5033720;28;20208;-47
2021/01/22 00:40:31;;;;;;;10.00;6.97;;;4.80;99.90;;;;;;5031534;28;20187;-56
2021/01/22 00:42:57;;;;;;;10.20;7.40;;;4.80;99.90;;;;;;5033785;28;20184;-50
2021/01/22 00:45:22;;;;;;;10.17;7.33;;;4.90;99.90;;;;;;5033876;28;20180;-51
2021/01/22 00:47:48;;;;;;;10.37;6.87;;;4.90;99.90;;;;;;5033601;28;20187;-47
2021/01/22 00:50:13;;;;;;;8.63;6.33;;;5.00;99.90;;;;;;5031121;28;20202;-52
2021/01/22 00:52:39;;;;;;;8.23;6.17;;;5.20;99.90;;;;;;5033828;28;20282;-56
2021/01/22 00:55:06;;;;;;;9.27;5.07;;;5.10;99.90;;;;;;5033440;28;20176;-51
2021/01/22 00:57:31;;;;;;;7.37;5.10;;;5.10;99.90;;;;;;5033311;28;20195;-47
2021/01/22 00:59:57;;;;;;;7.37;5.27;;;5.10;99.90;;;;;;5034070;28;20195;-58
2021/01/22 01:02:22;;;;;;;6.83;5.20;;;5.10;99.90;;;;;;5033945;28;20196;-51
2021/01/22 01:04:48;;;;;;;8.20;5.27;;;5.10;99.90;;;;;;5034413;28;20640;-52
2021/01/22 01:07:13;;;;;;;6.30;4.90;;;5.10;99.90;;;;;;5033463;28;20701;-46
2021/01/22 01:09:39;;;;;;;7.73;5.63;;;5.20;99.90;;;;;;5033829;28;20224;-54
2021/01/22 01:12:05;;;;;;;8.60;5.70;;;5.30;99.90;;;;;;5033762;28;20214;-48
2021/01/22 01:14:31;;;;;;;7.23;5.37;;;5.20;99.90;;;;;;5033831;28;20184;-56
2021/01/22 01:16:56;;;;;;;7.83;5.43;;;5.40;99.90;;;;;;5033669;28;20190;-46
2021/01/22 01:19:22;;;;;;;10.93;7.27;;;5.40;99.90;;;;;;5033710;28;20282;-52
2021/01/22 01:21:47;;;;;;;8.87;6.47;;;5.40;99.90;;;;;;5033541;28;20179;-46
2021/01/22 01:24:13;;;;;;;8.33;5.80;;;5.50;99.90;;;;;;5033652;28;20175;-51
2021/01/22 01:26:38;;;;;;;6.80;5.10;;;5.50;99.90;;;;;;5033454;28;20180;-46
2021/01/22 01:29:04;;;;;;;7.10;5.17;;;5.50;99.90;;;;;;5033526;28;20206;-56
2021/01/22 01:31:30;;;;;;;6.00;4.43;;;5.50;99.90;;;;;;5033418;28;20203;-56
2021/01/22 01:33:55;;;;;;;6.27;4.63;;;5.60;99.90;;;;;;5033311;28;20233;-48
2021/01/22 01:36:21;;;;;;;7.57;5.70;;;5.60;99.90;;;;;;5033343;28;20207;-46
2021/01/22 01:38:46;;;;;;;8.37;5.43;;;5.60;99.90;;;;;;5033757;28;20532;-46
2021/01/22 01:41:12;;;;;;;7.77;5.00;;;5.60;99.90;;;;;;5033778;28;20168;-53
2021/01/22 01:43:37;;;;;;;7.23;4.97;;;5.60;99.90;;;;;;5033187;28;20176;-54
2021/01/22 01:46:03;;;;;;;7.57;5.30;;;5.70;99.90;;;;;;5036396;28;20235;-51
2021/01/22 01:48:29;;;;;;;8.17;6.30;;;5.70;99.90;;;;;;5036824;28;20287;-56
2021/01/22 01:50:55;;;;;;;8.20;6.03;;;5.80;99.90;;;;;;5037554;28;20179;-51
2021/01/22 01:53:20;;;;;;;9.63;6.57;;;5.70;99.90;;;;;;5037477;28;20207;-49
2021/01/22 01:55:46;;;;;;;8.30;6.40;;;5.80;99.90;;;;;;5037832;28;20175;-50
2021/01/22 01:58:13;;;;;;;10.93;7.43;;;5.80;99.90;;;;;;5036653;28;20199;-51
2021/01/22 02:00:38;;;;;;;8.87;6.87;;;5.70;99.90;;;;;;5037904;28;20591;-55
2021/01/22 02:03:04;;;;;;;9.10;6.53;;;5.60;99.90;;;;;;4999489;28;20686;-46
2021/01/22 02:05:30;;;;;;;12.00;8.53;;;5.70;99.90;;;;;;5018043;28;20180;-47
2021/01/22 02:07:55;;;;;;;12.57;8.80;;;5.60;99.90;;;;;;5026629;28;20248;-51
2021/01/22 02:10:21;;;;;;;12.60;8.73;;;5.60;99.90;;;;;;5037363;28;20547;-51
2021/01/22 02:12:48;;;;;;;10.13;7.93;;;5.90;99.90;;;;;;5036759;28;20203;-46
2021/01/22 02:15:15;;;;;;;10.20;7.30;;;5.70;99.90;;;;;;5037727;28;20608;-47
2021/01/22 02:17:44;;;;;;;11.53;8.37;;;5.80;99.90;;;;;;5035740;28;20172;-51
2021/01/22 02:20:17;;;;;;;11.40;7.67;;;5.80;99.90;;;;;;5034060;28;20180;-56
2021/01/22 02:22:42;;;;;;;10.50;7.33;;;5.60;99.90;;;;;;5036570;28;20574;-48
2021/01/22 02:25:10;;;;;;;10.90;7.70;;;5.40;99.90;;;;;;5036344;28;20694;-46
2021/01/22 02:27:38;;;;;;;10.23;7.37;;;5.40;99.90;;;;;;5036286;28;20180;-52
2021/01/22 02:30:05;;;;;;;8.87;6.27;;;5.40;99.90;;;;;;5033476;28;20251;-46
2021/01/22 02:32:32;;;;;;;7.90;6.10;;;5.40;99.90;;;;;;5036337;28;20207;-46
2021/01/22 02:35:07;;;;;;;8.73;6.33;;;5.50;99.90;;;;;;5036046;28;20179;-57
2021/01/22 02:37:35;;;;;;;8.00;6.50;;;5.40;99.90;;;;;;5036179;28;20526;-55
2021/01/22 02:40:05;;;;;;;9.00;6.77;;;5.40;99.90;;;;;;5023064;28;20765;-53
2021/01/22 02:42:31;;;;;;;7.50;6.13;;;5.30;99.90;;;;;;5017676;28;20710;-47
2021/01/22 02:44:57;;;;;;;8.53;6.03;;;5.40;99.90;;;;;;5017748;28;20212;-47
2021/01/22 02:47:24;;;;;;;8.33;6.43;;;5.50;99.90;;;;;;5017090;28;20211;-46
2021/01/22 02:49:51;;;;;;;12.13;9.40;;;5.40;99.90;;;;;;5032959;28;20282;-51
2021/01/22 02:52:17;;;;;;;13.63;10.63;;;4.60;99.90;;;;;;5035765;28;20207;-47
2021/01/22 02:54:43;;;;;;;15.20;10.87;;;3.70;99.90;;;;;;5035649;28;20179;-52
2021/01/22 02:57:37;;;;;;;15.70;11.20;;;3.30;99.90;;;;;;5034760;28;20259;-49
2021/01/22 03:00:12;;;;;;;15.67;11.97;;;3.10;99.90;;;;;;5036203;28;20211;-51
2021/01/22 03:02:51;;;;;;;13.40;10.90;;;2.90;99.90;;;;;;5035965;28;20442;-49
2021/01/22 03:05:20;;;;;;;15.90;11.53;;;2.90;99.90;;;;;;5036014;28;20186;-46
2021/01/22 03:07:50;;;;;;;15.80;11.37;;;2.80;99.90;;;;;;5035595;28;20176;-53
2021/01/22 03:10:19;;;;;;;14.50;10.73;;;2.90;99.90;;;;;;5036095;28;20205;-51
2021/01/22 03:12:47;;;;;;;16.50;11.43;;;3.00;99.90;;;;;;5035792;28;20195;-50
2021/01/22 03:15:15;;;;;;;14.30;9.90;;;3.00;99.90;;;;;;5036109;28;20510;-50
2021/01/22 03:17:42;;;;;;;14.40;10.57;;;3.10;99.90;;;;;;5035540;28;20168;-51
2021/01/22 03:20:10;;;;;;;14.97;10.97;;;3.40;99.90;;;;;;5035709;28;20701;-46
2021/01/22 03:22:35;;;;;;;12.57;9.90;;;3.60;99.90;;;;;;5035876;28;20413;-51
2021/01/22 03:25:01;;;;;;;12.60;9.63;;;3.90;99.90;;;;;;5035458;28;20434;-46
2021/01/22 03:27:26;;;;;;;14.83;10.50;;;4.20;99.90;;;;;;5035987;28;20174;-46
2021/01/22 03:29:52;;;;;;;14.13;9.93;;;4.40;99.90;;;;;;5035864;28;20200;-51
2021/01/22 03:32:17;;;;;;;14.03;10.40;;;4.40;99.90;;;;;;5036010;28;20206;-52
2021/01/22 03:34:43;;;;;;;12.20;9.30;;;4.60;99.90;;;;;;5035690;28;20184;-46
2021/01/22 03:37:08;;;;;;;13.07;9.33;;;4.60;99.90;;;;;;5035644;28;20186;-51
2021/01/22 03:39:35;;;;;;;16.90;11.07;;;4.60;99.90;;;;;;5035550;28;20199;-52
2021/01/22 03:42:01;;;;;;;14.47;10.63;;;4.70;99.90;;;;;;5035778;28;20238;-46
2021/01/22 03:44:26;;;;;;;31.80;21.07;;;4.70;99.90;;;;;;5035271;28;20639;-46
2021/01/22 03:46:52;;;;;;;14.97;10.90;;;4.50;99.90;;;;;;5035525;28;20195;-49
2021/01/22 03:49:18;;;;;;;12.60;9.77;;;4.70;99.90;;;;;;5035108;28;20199;-46
2021/01/22 03:51:43;;;;;;;13.53;10.53;;;4.60;99.90;;;;;;5035444;28;20203;-54
2021/01/22 03:54:09;;;;;;;15.10;10.33;;;4.60;99.90;;;;;;5035342;28;20172;-51
2021/01/22 03:56:34;;;;;;;12.47;9.80;;;4.60;99.90;;;;;;5035050;28;20199;-53
2021/01/22 03:59:00;;;;;;;15.03;10.83;;;4.50;99.90;;;;;;5034741;28;20195;-47
2021/01/22 04:01:28;;;;;;;15.20;10.37;;;4.40;99.90;;;;;;5035699;28;20172;-47
2021/01/22 04:03:53;;;;;;;13.70;9.63;;;4.60;99.90;;;;;;5034785;28;20215;-56
2021/01/22 04:06:19;;;;;;;13.57;10.37;;;4.30;99.90;;;;;;5034853;28;20180;-52
2021/01/22 04:08:45;;;;;;;15.40;10.67;;;4.30;99.90;;;;;;5034657;28;20210;-53
2021/01/22 04:11:10;;;;;;;12.67;9.63;;;4.40;99.90;;;;;;5035272;28;20255;-47
2021/01/22 04:13:36;;;;;;;14.13;9.63;;;4.30;99.90;;;;;;5031940;28;20195;-53
2021/01/22 04:16:03;;;;;;;13.40;9.27;;;4.20;99.90;;;;;;5033905;28;20187;-51
2021/01/22 04:18:28;;;;;;;11.87;9.30;;;4.30;99.90;;;;;;5032150;28;20708;-49
2021/01/22 04:20:54;;;;;;;12.17;9.57;;;4.30;99.90;;;;;;5033808;28;20267;-48
2021/01/22 04:23:20;;;;;;;13.90;10.23;;;4.40;99.90;;;;;;5034155;28;20186;-47
2021/01/22 04:25:46;;;;;;;14.27;9.63;;;4.30;99.90;;;;;;5034699;28;20207;-46
2021/01/22 04:28:12;;;;;;;12.63;9.40;;;4.20;99.90;;;;;;5033584;28;20683;-46
2021/01/22 04:30:38;;;;;;;13.03;9.90;;;4.20;99.90;;;;;;5031886;28;20195;-48
2021/01/22 04:33:03;;;;;;;12.97;9.53;;;4.30;99.90;;;;;;5033788;28;20612;-46
2021/01/22 04:35:29;;;;;;;11.50;8.73;;;4.30;99.90;;;;;;5034338;28;20222;-48
2021/01/22 04:37:54;;;;;;;12.07;9.47;;;4.50;99.90;;;;;;5033533;28;20180;-56
2021/01/22 04:40:23;;;;;;;12.33;9.27;;;4.60;99.90;;;;;;5030573;28;20231;-51
2021/01/22 04:42:49;;;;;;;12.27;9.90;;;4.60;99.90;;;;;;5033963;28;20660;-46
2021/01/22 04:45:14;;;;;;;12.70;9.43;;;4.60;99.90;;;;;;5033496;28;20266;-51
2021/01/22 04:47:41;;;;;;;15.57;10.30;;;4.60;99.90;;;;;;5033606;28;20643;-46
2021/01/22 04:50:11;;;;;;;11.83;8.93;;;4.60;99.90;;;;;;5033832;28;20195;-47
2021/01/22 04:52:38;;;;;;;13.27;9.77;;;4.50;99.90;;;;;;5033755;28;20601;-45
2021/01/22 04:55:07;;;;;;;13.73;10.10;;;4.50;99.90;;;;;;5016331;28;20310;-48
2021/01/22 04:57:38;;;;;;;12.83;8.90;;;4.70;99.90;;;;;;5033217;28;20179;-46
2021/01/22 05:00:04;;;;;;;12.10;8.03;;;4.80;99.90;;;;;;5033940;28;20270;-46
2021/01/22 05:02:31;;;;;;;10.10;8.13;;;4.90;99.90;;;;;;5015882;28;20203;-46
2021/01/22 05:04:58;;;;;;;13.53;10.43;;;4.90;99.90;;;;;;5034061;28;20692;-46
2021/01/22 05:07:24;;;;;;;12.70;9.77;;;5.00;99.90;;;;;;5033788;28;20175;-50
2021/01/22 05:09:49;;;;;;;14.13;11.10;;;5.00;99.90;;;;;;5034240;28;20655;-47
2021/01/22 05:12:15;;;;;;;14.27;10.27;;;5.00;99.90;;;;;;5033771;28;20286;-54
2021/01/22 05:14:41;;;;;;;13.50;9.53;;;5.00;99.90;;;;;;5033548;28;20195;-46
2021/01/22 05:17:08;;;;;;;12.27;9.37;;;4.90;99.90;;;;;;5033728;28;20222;-46
2021/01/22 05:19:36;;;;;;;12.00;8.83;;;4.90;99.90;;;;;;5033150;28;20690;-47
2021/01/22 05:22:03;;;;;;;20.27;12.33;;;4.90;99.90;;;;;;5033408;28;20190;-46
2021/01/22 05:24:29;;;;;;;15.17;10.23;;;4.80;99.90;;;;;;5034003;28;20168;-52
2021/01/22 05:27:12;;;;;;;13.37;8.70;;;4.80;99.90;;;;;;5033363;28;20229;-50
2021/01/22 05:29:43;;;;;;;11.23;8.13;;;4.80;99.90;;;;;;5033647;28;20188;-45
2021/01/22 05:32:25;;;;;;;11.97;9.03;;;4.90;99.90;;;;;;5033375;28;20754;-45
2021/01/22 05:34:51;;;;;;;11.67;9.00;;;5.00;99.90;;;;;;5033504;28;20222;-46
2021/01/22 05:37:17;;;;;;;11.73;8.83;;;5.10;99.90;;;;;;5033177;28;20176;-51
2021/01/22 05:39:43;;;;;;;13.33;8.70;;;5.10;99.90;;;;;;5033427;28;20203;-46
2021/01/22 05:42:10;;;;;;;81.70;40.83;;;5.10;99.90;;;;;;5033491;28;20211;-48
2021/01/22 05:44:36;;;;;;;34.73;21.57;;;5.10;99.90;;;;;;5033870;28;20184;-46
2021/01/22 05:47:11;;;;;;;26.70;14.63;;;5.10;99.90;;;;;;5032613;28;20179;-57
2021/01/22 05:49:58;;;;;;;19.63;12.63;;;4.90;99.90;;;;;;5033759;28;20284;-48
2021/01/22 05:52:24;;;;;;;11.00;8.37;;;5.00;99.90;;;;;;5033467;28;20286;-46
2021/01/22 05:54:51;;;;;;;12.10;8.77;;;5.00;99.90;;;;;;5033410;28;20206;-51
2021/01/22 05:57:17;;;;;;;13.03;9.07;;;5.00;99.90;;;;;;5032815;28;20172;-46
2021/01/22 05:59:42;;;;;;;12.43;9.40;;;4.90;99.90;;;;;;5033823;28;20279;-48
2021/01/22 06:02:28;;;;;;;14.10;9.57;;;4.60;99.90;;;;;;5032175;28;20190;-56
2021/01/22 06:05:13;;;;;;;14.37;9.97;;;4.50;99.90;;;;;;5032436;28;20250;-45
2021/01/22 06:07:43;;;;;;;14.23;10.30;;;4.40;99.90;;;;;;5023032;28;20211;-46
2021/01/22 06:10:24;;;;;;;13.63;10.40;;;4.30;99.90;;;;;;5030314;28;20254;-53
2021/01/22 06:12:52;;;;;;;14.27;10.07;;;4.30;99.90;;;;;;5031643;28;20644;-51
2021/01/22 06:15:20;;;;;;;15.33;11.17;;;4.30;99.90;;;;;;5033094;28;20168;-53
2021/01/22 06:17:48;;;;;;;14.07;10.23;;;4.30;99.90;;;;;;5032720;28;20210;-46
2021/01/22 06:20:19;;;;;;;13.73;10.43;;;4.40;99.90;;;;;;5012284;28;20199;-54
2021/01/22 06:23:10;;;;;;;15.53;11.23;;;4.40;99.90;;;;;;5016465;28;20516;-50
2021/01/22 06:25:37;;;;;;;13.57;10.37;;;4.40;99.90;;;;;;5020359;28;20180;-55
2021/01/22 06:28:04;;;;;;;14.50;10.83;;;4.30;99.90;;;;;;5032102;28;20188;-52
2021/01/22 06:30:32;;;;;;;14.47;11.00;;;4.30;99.90;;;;;;5029325;28;20195;-46
2021/01/22 06:32:59;;;;;;;14.57;10.80;;;4.30;99.90;;;;;;5035270;28;20249;-50
2021/01/22 06:35:27;;;;;;;13.77;10.70;;;4.20;99.90;;;;;;5035957;28;20176;-52
2021/01/22 06:37:52;;;;;;;12.33;10.03;;;4.20;99.90;;;;;;5035755;28;20210;-57
2021/01/22 06:40:19;;;;;;;15.73;11.57;;;4.30;99.90;;;;;;5036599;28;20172;-46
2021/01/22 06:42:45;;;;;;;14.50;11.07;;;4.40;99.90;;;;;;5036140;28;20189;-46
2021/01/22 06:45:11;;;;;;;12.63;9.70;;;4.50;99.90;;;;;;5036549;28;20184;-52
2021/01/22 06:47:37;;;;;;;13.60;10.60;;;4.60;99.90;;;;;;5035764;28;20509;-49
2021/01/22 06:50:03;;;;;;;15.07;10.53;;;4.60;99.90;;;;;;5036009;28;20192;-50
2021/01/22 06:52:28;;;;;;;12.87;10.23;;;4.40;99.90;;;;;;5019554;28;20208;-49
2021/01/22 06:54:57;;;;;;;13.83;10.40;;;4.40;99.90;;;;;;5036177;28;20172;-46
2021/01/22 06:57:24;;;;;;;13.07;10.17;;;4.50;99.90;;;;;;5035606;28;20172;-46
2021/01/22 06:59:49;;;;;;;14.17;9.73;;;4.50;99.90;;;;;;5035539;28;20191;-47
2021/01/22 07:02:35;;;;;;;13.80;10.10;;;4.50;99.90;;;;;;5031179;28;20541;-50
2021/01/22 07:05:00;;;;;;;12.13;9.93;;;4.60;99.90;;;;;;5032292;28;20663;-46
2021/01/22 07:07:45;;;;;;;14.33;9.67;;;4.60;99.90;;;;;;5034433;28;20229;-55
2021/01/22 07:10:11;;;;;;;11.00;8.93;;;4.70;99.90;;;;;;5033119;28;20233;-45
2021/01/22 07:12:37;;;;;;;11.87;8.77;;;4.80;99.90;;;;;;5035308;28;20656;-46
2021/01/22 07:15:26;;;;;;;11.67;8.17;;;4.80;99.90;;;;;;5034862;28;20178;-50
2021/01/22 07:17:56;;;;;;;10.17;7.90;;;4.90;99.90;;;;;;5023428;28;20192;-46
2021/01/22 07:20:22;;;;;;;10.20;7.67;;;4.90;99.90;;;;;;5033322;28;20207;-45
2021/01/22 07:22:55;;;;;;;13.00;8.60;;;5.00;99.90;;;;;;5030792;28;20184;-51
2021/01/22 07:25:40;;;;;;;10.47;8.20;;;5.00;99.90;;;;;;5033397;28;20183;-52
2021/01/22 07:28:17;;;;;;;10.50;7.63;;;5.10;99.90;;;;;;5034193;28;20269;-46
2021/01/22 07:30:43;;;;;;;10.33;7.63;;;5.20;99.90;;;;;;5032879;28;20246;-49
2021/01/22 07:33:28;;;;;;;10.90;8.07;;;5.30;99.90;;;;;;5034261;28;20206;-48
2021/01/22 07:36:09;;;;;;;9.77;7.27;;;5.40;99.90;;;;;;5036388;28;20687;-48
2021/01/22 07:38:37;;;;;;;10.43;8.38;;;5.50;99.90;;;;;;5032970;28;20869;-45
2021/01/22 07:41:03;;;;;;;12.37;9.60;;;5.70;99.90;;;;;;5033867;28;20184;-45
2021/01/22 07:43:29;;;;;;;11.77;9.10;;;5.80;99.90;;;;;;5033578;28;20706;-47
2021/01/22 07:46:12;;;;;;;13.90;8.87;;;6.00;99.90;;;;;;5034706;28;20188;-49
2021/01/22 07:48:39;;;;;;;99.47;48.57;;;6.00;99.90;;;;;;5034207;28;20517;-48
2021/01/22 07:51:29;;;;;;;114.70;48.80;;;6.00;99.90;;;;;;5035134;28;20188;-45
2021/01/22 07:53:56;;;;;;;31.87;18.90;;;6.00;99.90;;;;;;5030731;28;20258;-45
2021/01/22 07:56:23;;;;;;;46.80;26.70;;;6.10;99.90;;;;;;5034568;28;20268;-46
2021/01/22 07:58:48;;;;;;;24.17;14.53;;;6.10;99.90;;;;;;5032002;28;20216;-49
2021/01/22 08:01:23;;;;;;;13.07;9.63;;;6.10;99.90;;;;;;5032559;28;20190;-52
2021/01/22 08:03:49;;;;;;;12.73;9.77;;;6.00;99.90;;;;;;5034325;28;20187;-47
2021/01/22 08:06:15;;;;;;;14.73;10.33;;;6.00;99.90;;;;;;5034795;28;20176;-46
2021/01/22 08:08:40;;;;;;;13.47;9.33;;;6.00;99.90;;;;;;5031549;28;20717;-47
2021/01/22 08:11:19;;;;;;;11.60;8.47;;;6.10;99.90;;;;;;5033500;28;20176;-53
2021/01/22 08:13:45;;;;;;;11.63;9.40;;;6.20;99.90;;;;;;5034275;28;20667;-46
2021/01/22 08:16:11;;;;;;;11.50;8.83;;;6.20;99.90;;;;;;5038656;28;20201;-54
2021/01/22 08:18:43;;;;;;;12.33;9.10;;;6.30;99.90;;;;;;5038202;28;20206;-50
2021/01/22 08:21:09;;;;;;;13.33;10.10;;;6.60;99.90;;;;;;5033080;28;20879;-44
2021/01/22 08:23:35;;;;;;;13.17;9.93;;;7.30;99.90;;;;;;5029177;28;20270;-45
2021/01/22 08:26:01;;;;;;;10.97;8.80;;;7.90;99.90;;;;;;5027861;28;20211;-50
2021/01/22 08:28:27;;;;;;;8.67;6.90;;;8.90;99.90;;;;;;5029171;28;20563;-50
2021/01/22 08:30:53;;;;;;;8.30;6.70;;;11.30;99.90;;;;;;5027847;28;20188;-48
2021/01/22 08:33:18;;;;;;;8.10;6.10;;;14.40;99.90;;;;;;5033587;28;20217;-52
2021/01/22 08:35:45;;;;;;;6.60;5.43;;;17.40;95.30;;;;;;5033796;28;20176;-57
2021/01/22 08:38:13;;;;;;;6.23;5.43;;;20.40;90.90;;;;;;5032030;28;20200;-46
2021/01/22 08:40:43;;;;;;;6.13;5.03;;;23.20;79.70;;;;;;5034032;28;20206;-51
2021/01/22 08:43:09;;;;;;;6.68;4.90;;;24.70;70.80;;;;;;5034088;28;20724;-44
2021/01/22 08:45:38;;;;;;;6.72;5.45;;;24.90;66.80;;;;;;5033774;28;20180;-44
2021/01/22 08:48:05;;;;;;;5.93;5.32;;;26.10;79.20;;;;;;5033792;28;20753;-44
2021/01/22 08:50:30;;;;;;;11.88;9.63;;;26.50;61.80;;;;;;5033977;28;20184;-53
2021/01/22 08:53:10;;;;;;;9.60;8.05;;;27.00;57.30;;;;;;5034017;28;20219;-57
2021/01/22 08:55:37;;;;;;;7.43;6.22;;;26.40;56.70;;;;;;5032447;28;20200;-51
2021/01/22 08:58:03;;;;;;;6.22;5.63;;;25.30;57.00;;;;;;5033876;28;20259;-52
2021/01/22 09:00:29;;;;;;;8.15;6.28;;;24.10;57.40;;;;;;5033555;28;20167;-52
2021/01/22 09:02:56;;;;;;;7.30;6.35;;;23.20;59.00;;;;;;5033654;28;20276;-51
2021/01/22 09:05:22;;;;;;;7.78;6.97;;;22.60;59.70;;;;;;5033838;28;20230;-45
2021/01/22 09:08:04;;;;;;;11.43;8.27;;;21.90;59.60;;;;;;5033703;28;20200;-50
2021/01/22 09:10:31;;;;;;;8.73;7.50;;;21.00;61.20;;;;;;5033269;28;20205;-45
2021/01/22 09:13:14;;;;;;;7.73;6.93;;;20.30;62.30;;;;;;5033606;28;20211;-45
2021/01/22 09:15:41;;;;;;;7.93;6.67;;;19.60;63.80;;;;;;5033488;28;20189;-51
2021/01/22 09:18:21;;;;;;;7.20;6.20;;;19.10;65.30;;;;;;5053145;28;20191;-49
2021/01/22 09:21:04;;;;;;;8.37;6.43;;;18.90;66.20;;;;;;5052108;28;20166;-47
2021/01/22 09:23:30;;;;;;;7.53;6.33;;;18.70;65.80;;;;;;5044947;28;20185;-57
2021/01/22 09:25:56;;;;;;;7.73;6.40;;;19.10;67.80;;;;;;5034077;28;20222;-52
2021/01/22 09:28:22;;;;;;;8.13;7.03;;;20.20;67.10;;;;;;5032388;28;20199;-49
2021/01/22 09:30:47;;;;;;;7.47;6.78;;;22.30;63.80;;;;;;5040604;28;20636;-56
2021/01/22 09:33:14;;;;;;;7.32;6.53;;;24.60;61.10;;;;;;5032641;28;20219;-46
2021/01/22 09:35:40;;;;;;;6.50;5.60;;;29.50;53.70;;;;;;5033252;28;20179;-46
2021/01/22 09:38:06;;;;;;;8.18;5.93;;;29.50;53.40;;;;;;5023695;28;20212;-46
2021/01/22 09:40:31;;;;;;;6.65;6.03;;;31.40;49.00;;;;;;5033340;28;20568;-46
2021/01/22 09:42:57;;;;;;;6.88;6.18;;;32.90;46.50;;;;;;5023171;28;20179;-47
2021/01/22 09:45:22;;;;;;;5.68;4.90;;;34.60;44.50;;;;;;5032855;28;20242;-50
2021/01/22 09:47:48;;;;;;;5.28;4.32;;;36.00;40.60;;;;;;5031923;28;20298;-54
2021/01/22 09:50:16;;;;;;;4.75;4.30;;;36.50;38.10;;;;;;5029610;28;20677;-52
2021/01/22 09:52:41;;;;;;;4.35;3.95;;;36.60;37.50;;;;;;5028791;28;20187;-52
2021/01/22 09:55:10;;;;;;;4.53;4.13;;;35.90;36.60;;;;;;5030839;28;20188;-55
2021/01/22 09:57:36;;;;;;;4.13;3.72;;;35.50;36.40;;;;;;5030723;28;20241;-48
2021/01/22 10:00:04;;;;;;;3.80;3.50;;;35.30;36.30;;;;;;5027567;28;20552;-49
2021/01/22 10:02:30;;;;;;;4.18;3.78;;;34.60;35.90;;;;;;5030819;28;20236;-50
2021/01/22 10:04:56;;;;;;;3.85;3.55;;;32.50;36.60;;;;;;5031493;28;20203;-49
2021/01/22 10:07:22;;;;;;;5.32;3.92;;;30.20;38.50;;;;;;5036025;28;20290;-51
2021/01/22 10:09:48;;;;;;;4.30;3.90;;;27.90;40.70;;;;;;5031563;28;20452;-45
2021/01/22 10:12:13;;;;;;;4.22;3.83;;;25.80;42.70;;;;;;5036233;28;20176;-45
2021/01/22 10:14:40;;;;;;;5.38;4.50;;;23.70;45.40;;;;;;5034765;28;20172;-46
2021/01/22 10:17:06;;;;;;;5.47;4.67;;;21.90;47.80;;;;;;5034877;28;20591;-49
2021/01/22 10:19:31;;;;;;;5.53;4.70;;;20.40;49.90;;;;;;5037751;28;20215;-51
2021/01/22 10:21:56;;;;;;;5.50;4.63;;;19.30;51.90;;;;;;5035737;28;20208;-49
2021/01/22 10:24:22;;;;;;;5.23;4.73;;;18.30;54.10;;;;;;5036167;28;20197;-46
2021/01/22 10:26:49;;;;;;;5.87;5.07;;;17.10;56.10;;;;;;5035917;28;20234;-49
2021/01/22 10:29:15;;;;;;;6.10;5.00;;;16.50;58.30;;;;;;5031770;28;20752;-50
2021/01/22 10:31:41;;;;;;;6.10;5.33;;;15.90;59.80;;;;;;5034850;28;20191;-47
2021/01/22 10:34:07;;;;;;;6.10;5.20;;;15.40;61.90;;;;;;5035299;28;20172;-45
2021/01/22 10:36:32;;;;;;;7.87;5.73;;;15.00;63.40;;;;;;5035949;28;20172;-47
2021/01/22 10:38:58;;;;;;;6.83;5.40;;;14.70;65.10;;;;;;5035030;28;20211;-50
2021/01/22 10:41:24;;;;;;;6.20;5.13;;;14.30;66.90;;;;;;5032663;28;20564;-49
2021/01/22 10:43:49;;;;;;;6.53;5.53;;;14.00;67.70;;;;;;5035090;28;20247;-49
2021/01/22 10:46:15;;;;;;;7.10;5.77;;;13.80;69.60;;;;;;5034813;28;20167;-45
2021/01/22 10:48:41;;;;;;;5.47;4.87;;;13.60;70.90;;;;;;5031754;28;20617;-44
2021/01/22 10:51:08;;;;;;;5.83;4.60;;;13.50;71.90;;;;;;5032756;28;20643;-44
2021/01/22 10:53:33;;;;;;;7.60;5.23;;;13.30;73.10;;;;;;5036374;28;20176;-45
2021/01/22 10:55:59;;;;;;;5.87;5.00;;;13.40;74.20;;;;;;5034983;28;20697;-53
2021/01/22 10:58:25;;;;;;;7.03;5.10;;;13.40;74.50;;;;;;5033804;28;20208;-51
2021/01/22 11:00:52;;;;;;;6.30;5.33;;;13.50;75.30;;;;;;5035520;28;20194;-47
2021/01/22 11:03:18;;;;;;;5.37;4.73;;;13.60;76.20;;;;;;5034015;28;20239;-48
2021/01/22 11:05:43;;;;;;;5.43;4.60;;;13.70;76.70;;;;;;5033773;28;20203;-45
2021/01/22 11:08:09;;;;;;;5.20;4.60;;;13.60;76.20;;;;;;5033690;28;20719;-47
2021/01/22 11:10:34;;;;;;;6.47;4.90;;;13.70;76.90;;;;;;5033408;28;20624;-53
2021/01/22 11:13:02;;;;;;;6.47;5.50;;;13.70;76.80;;;;;;5031599;28;20333;-50
2021/01/22 11:15:29;;;;;;;6.03;4.80;;;13.70;76.80;;;;;;5033396;28;20183;-51
2021/01/22 11:17:55;;;;;;;6.03;4.80;;;13.70;77.20;;;;;;5014207;28;20636;-49
2021/01/22 11:20:21;;;;;;;5.20;4.27;;;13.60;77.80;;;;;;5033969;28;20173;-47
2021/01/22 11:22:47;;;;;;;5.50;4.20;;;13.40;77.30;;;;;;5020777;28;20223;-47
2021/01/22 11:25:15;;;;;;;5.97;4.90;;;13.20;77.70;;;;;;5027229;28;20183;-51
2021/01/22 11:27:41;;;;;;;7.17;5.03;;;12.80;78.90;;;;;;5027177;28;20202;-52
2021/01/22 11:30:07;;;;;;;5.20;4.20;;;12.70;79.90;;;;;;5029215;28;20198;-48
2021/01/22 11:32:33;;;;;;;5.13;4.37;;;12.60;80.70;;;;;;5030949;28;20668;-50
2021/01/22 11:34:59;;;;;;;5.10;4.30;;;12.70;81.30;;;;;;5032764;28;20191;-56
2021/01/22 11:37:24;;;;;;;5.90;4.23;;;12.70;81.70;;;;;;5033430;28;20622;-47
2021/01/22 11:39:50;;;;;;;5.80;4.67;;;12.70;81.50;;;;;;5031580;28;20262;-47
2021/01/22 11:42:15;;;;;;;6.37;4.60;;;12.80;81.10;;;;;;5033926;28;20196;-46
2021/01/22 11:44:43;;;;;;;4.87;3.93;;;13.00;81.70;;;;;;5033507;28;20198;-55
2021/01/22 11:47:09;;;;;;;4.90;4.10;;;13.30;81.70;;;;;;5029124;28;20208;-49
2021/01/22 11:49:34;;;;;;;6.17;4.73;;;14.10;82.20;;;;;;5033356;28;20199;-48
2021/01/22 11:52:00;;;;;;;4.93;4.40;;;16.10;78.80;;;;;;5031402;28;20204;-48
2021/01/22 11:54:25;;;;;;;4.63;3.90;;;18.00;74.50;;;;;;5032459;28;20187;-48
2021/01/22 11:56:51;;;;;;;3.93;3.40;;;19.80;68.40;;;;;;5032249;28;20200;-48
2021/01/22 11:59:19;;;;;;;4.55;3.20;;;21.00;64.40;;;;;;5031747;28;20226;-53
2021/01/22 12:01:44;;;;;;;4.00;3.60;;;22.70;61.70;;;;;;5031487;28;20215;-51
2021/01/22 12:04:10;;;;;;;3.90;3.50;;;24.60;58.00;;;;;;5031642;28;20601;-50
2021/01/22 12:06:36;;;;;;;5.40;3.45;;;25.90;53.60;;;;;;5032378;28;20181;-51
2021/01/22 12:09:02;;;;;;;3.90;3.38;;;26.10;51.70;;;;;;5032413;28;20204;-53
2021/01/22 12:11:28;;;;;;;4.10;3.70;;;26.50;51.40;;;;;;5032522;28;20188;-51
2021/01/22 12:13:55;;;;;;;4.07;3.67;;;27.90;49.60;;;;;;5032649;28;20176;-46
2021/01/22 12:16:20;;;;;;;5.38;3.88;;;29.00;48.30;;;;;;5031928;28;20262;-47
2021/01/22 12:18:46;;;;;;;4.38;3.97;;;30.10;45.20;;;;;;5033925;28;20616;-53
2021/01/22 12:21:11;;;;;;;5.05;4.07;;;30.10;44.20;;;;;;5029717;28;20257;-52
2021/01/22 12:23:37;;;;;;;4.88;4.40;;;28.90;44.70;;;;;;5032983;28;20203;-47
2021/01/22 12:26:04;;;;;;;3.70;3.40;;;28.50;45.50;;;;;;5032139;28;20587;-48
2021/01/22 12:28:29;;;;;;;3.70;3.40;;;28.50;45.20;;;;;;5030531;28;20249;-52
2021/01/22 12:30:55;;;;;;;4.07;3.67;;;28.90;45.60;;;;;;5030233;28;20183;-49
2021/01/22 12:33:21;;;;;;;4.70;4.07;;;29.80;44.80;;;;;;5031026;28;20187;-48
2021/01/22 12:35:49;;;;;;;3.63;3.33;;;30.70;43.60;;;;;;5033925;28;20175;-50
2021/01/22 12:38:18;;;;;;;3.40;3.10;;;31.20;42.30;;;;;;5032755;28;20200;-52
2021/01/22 12:40:44;;;;;;;4.82;3.88;;;31.50;42.10;;;;;;5021099;28;20617;-51
2021/01/22 12:43:10;;;;;;;4.57;4.13;;;31.70;41.80;;;;;;5032729;28;20219;-52
2021/01/22 12:45:36;;;;;;;5.35;4.00;;;32.00;41.30;;;;;;5026763;28;20195;-49
2021/01/22 12:48:04;;;;;;;3.85;3.47;;;32.40;41.10;;;;;;5029470;28;20192;-46